This is the latest recevied weather packets stored in our database for station/object OK1ZDJ-13. If no packets are shown the sender has not sent any weather packets the latest 10 day(s).
| Time | Temp. | Humidity | Pressure | Rain* | Wind** | Luminosity | Snow |
|---|---|---|---|---|---|---|---|
| 1777786073 | 10.56° C | 67% | 1019.8 hPa | - | - | - | - |
| 1777785473 | 8.89° C | 68% | 1019.8 hPa | - | - | - | - |
| 1777784873 | 6.67° C | 80% | 1019.9 hPa | - | - | - | - |
| 1777784273 | 5° C | 80% | 1019.8 hPa | - | - | - | - |
| 1777783673 | 5° C | 80% | 1019.7 hPa | - | - | - | - |
| 1777783073 | 4.44° C | 81% | 1019.8 hPa | - | - | - | - |
| 1777782473 | 3.89° C | 80% | 1019.7 hPa | - | - | - | - |
| 1777781873 | 3.89° C | 80% | 1019.6 hPa | - | - | - | - |
| 1777781273 | 3.89° C | 80% | 1019.5 hPa | - | - | - | - |
| 1777780673 | 3.89° C | 78% | 1019.6 hPa | - | - | - | - |
| 1777780073 | 3.89° C | 77% | 1019.6 hPa | - | - | - | - |
| 1777779478 | 4.44° C | 77% | 1019.5 hPa | - | - | - | - |
| 1777778881 | 4.44° C | 77% | 1019.4 hPa | - | - | - | - |
| 1777778281 | 4.44° C | 76% | 1019.4 hPa | - | - | - | - |
| 1777777681 | 4.44° C | 76% | 1019.4 hPa | - | - | - | - |
| 1777777081 | 5° C | 75% | 1019.3 hPa | - | - | - | - |
| 1777776481 | 5° C | 76% | 1019.1 hPa | - | - | - | - |
| 1777775881 | 5° C | 75% | 1019.4 hPa | - | - | - | - |
| 1777775281 | 4.44° C | 76% | 1019.3 hPa | - | - | - | - |
| 1777774681 | 4.44° C | 77% | 1019.3 hPa | - | - | - | - |
| 1777774081 | 5° C | 77% | 1019.3 hPa | - | - | - | - |
| 1777773481 | 5° C | 79% | 1019.4 hPa | - | - | - | - |
| 1777772881 | 5° C | 78% | 1019.4 hPa | - | - | - | - |
| 1777772281 | 5° C | 77% | 1019.6 hPa | - | - | - | - |
| 1777771672 | 5.56° C | 77% | 1019.5 hPa | - | - | - | - |
* Rain since midnight (hover to see other rain measurements)
** Current wind speed in m/s (hover to see current wind gust speed)